Les Cayes, Haiti
Current Conditions -  °F | °C
As of 6:56 AM on Thursday 23 Oct 2014 (Local Time) from MUGM Reporting Station
Broken Clouds Broken Clouds  
Wind Chill: 77°   Ceiling: 28000
Heat Index: 78°   Visibility: 6mi
Dew Point: 76°   Wind: 6mph
Humidity: 96%   Direction: 350°N
Pressure: 29.9"   Gusts: NA
Location:  18.2°N, 73.75°W
Report Text: MUGM 231156Z 35005KT 9999 FEW030 SCT075 BKN280 25/24 A2990 RMK SLP126 TCU DSNT SE 60000 T02500244 10261 20244 53007
Loading
Personal Weather Stations






























Interactive Weather Map New forecast layout! Learn more

10-Day Weather Forecast

Advertisements
Track Severe Weather on mobile